sensor_id;sensor_type;location;lat;lon;timestamp;temperature;humidity
21214;DHT22;10764;50.850;2.904;2023-04-03T00:02:02;20.10;48.30
21214;DHT22;10764;50.850;2.904;2023-04-03T00:04:29;19.50;48.00
21214;DHT22;10764;50.850;2.904;2023-04-03T00:06:57;20.10;48.40
21214;DHT22;10764;50.850;2.904;2023-04-03T00:09:23;19.50;48.10
21214;DHT22;10764;50.850;2.904;2023-04-03T00:11:51;19.60;48.20
21214;DHT22;10764;50.850;2.904;2023-04-03T00:14:18;19.50;48.20
21214;DHT22;10764;50.850;2.904;2023-04-03T00:16:44;21.10;49.00
21214;DHT22;10764;50.850;2.904;2023-04-03T00:19:11;19.50;48.20
21214;DHT22;10764;50.850;2.904;2023-04-03T00:21:39;20.70;48.90
21214;DHT22;10764;50.850;2.904;2023-04-03T00:24:06;21.30;49.20
21214;DHT22;10764;50.850;2.904;2023-04-03T00:26:33;19.50;48.30
21214;DHT22;10764;50.850;2.904;2023-04-03T00:29:00;19.50;48.30
21214;DHT22;10764;50.850;2.904;2023-04-03T00:31:27;19.50;48.40
21214;DHT22;10764;50.850;2.904;2023-04-03T00:33:54;20.40;48.80
21214;DHT22;10764;50.850;2.904;2023-04-03T00:36:22;20.90;49.10
21214;DHT22;10764;50.850;2.904;2023-04-03T00:38:49;22.30;49.80
21214;DHT22;10764;50.850;2.904;2023-04-03T00:41:15;19.50;48.40
21214;DHT22;10764;50.850;2.904;2023-04-03T00:43:43;21.50;49.40
21214;DHT22;10764;50.850;2.904;2023-04-03T00:46:10;21.80;49.50
21214;DHT22;10764;50.850;2.904;2023-04-03T00:48:41;19.80;48.50
21214;DHT22;10764;50.850;2.904;2023-04-03T00:51:13;20.60;48.90
21214;DHT22;10764;50.850;2.904;2023-04-03T00:53:56;19.50;48.30
21214;DHT22;10764;50.850;2.904;2023-04-03T00:56:26;19.50;48.30
21214;DHT22;10764;50.850;2.904;2023-04-03T00:59:06;19.50;48.30
21214;DHT22;10764;50.850;2.904;2023-04-03T01:01:34;19.50;48.30
21214;DHT22;10764;50.850;2.904;2023-04-03T01:04:02;21.40;49.20
21214;DHT22;10764;50.850;2.904;2023-04-03T01:06:33;20.40;48.70
21214;DHT22;10764;50.850;2.904;2023-04-03T01:09:06;20.20;48.60
21214;DHT22;10764;50.850;2.904;2023-04-03T01:11:33;19.50;48.20
21214;DHT22;10764;50.850;2.904;2023-04-03T01:14:01;19.50;48.20
21214;DHT22;10764;50.850;2.904;2023-04-03T01:16:29;19.50;48.10
21214;DHT22;10764;50.850;2.904;2023-04-03T01:18:59;21.90;49.30
21214;DHT22;10764;50.850;2.904;2023-04-03T01:22:09;20.90;48.80
21214;DHT22;10764;50.850;2.904;2023-04-03T01:24:40;19.50;48.10
21214;DHT22;10764;50.850;2.904;2023-04-03T01:27:10;20.10;48.40
21214;DHT22;10764;50.850;2.904;2023-04-03T01:29:37;19.50;48.00
21214;DHT22;10764;50.850;2.904;2023-04-03T01:32:05;20.40;48.50
21214;DHT22;10764;50.850;2.904;2023-04-03T01:34:32;19.50;48.00
21214;DHT22;10764;50.850;2.904;2023-04-03T01:37:00;19.50;48.00
21214;DHT22;10764;50.850;2.904;2023-04-03T01:39:27;20.50;48.50
21214;DHT22;10764;50.850;2.904;2023-04-03T01:41:54;20.60;48.60
21214;DHT22;10764;50.850;2.904;2023-04-03T01:44:29;19.50;48.00
21214;DHT22;10764;50.850;2.904;2023-04-03T01:46:56;21.40;48.90
21214;DHT22;10764;50.850;2.904;2023-04-03T01:49:24;21.80;49.80
21214;DHT22;10764;50.850;2.904;2023-04-03T01:51:51;20.70;48.60
21214;DHT22;10764;50.850;2.904;2023-04-03T01:54:18;19.50;47.90
21214;DHT22;10764;50.850;2.904;2023-04-03T01:56:44;21.20;48.80
21214;DHT22;10764;50.850;2.904;2023-04-03T01:59:12;20.60;48.50
21214;DHT22;10764;50.850;2.904;2023-04-03T02:01:39;19.50;47.90
21214;DHT22;10764;50.850;2.904;2023-04-03T02:04:06;20.50;48.30
21214;DHT22;10764;50.850;2.904;2023-04-03T02:06:33;19.80;48.00
21214;DHT22;10764;50.850;2.904;2023-04-03T02:09:01;19.90;48.10
21214;DHT22;10764;50.850;2.904;2023-04-03T02:11:30;21.30;49.00
21214;DHT22;10764;50.850;2.904;2023-04-03T02:13:56;19.40;47.70
21214;DHT22;10764;50.850;2.904;2023-04-03T02:16:23;20.40;48.20
21214;DHT22;10764;50.850;2.904;2023-04-03T02:18:51;21.70;48.90
21214;DHT22;10764;50.850;2.904;2023-04-03T02:21:18;19.40;47.70
21214;DHT22;10764;50.850;2.904;2023-04-03T02:23:45;20.50;48.20
21214;DHT22;10764;50.850;2.904;2023-04-03T02:26:13;20.60;48.30
21214;DHT22;10764;50.850;2.904;2023-04-03T02:28:41;19.70;47.80
21214;DHT22;10764;50.850;2.904;2023-04-03T02:31:08;19.40;47.60
21214;DHT22;10764;50.850;2.904;2023-04-03T02:33:37;19.40;47.60
21214;DHT22;10764;50.850;2.904;2023-04-03T02:36:07;20.20;48.70
21214;DHT22;10764;50.850;2.904;2023-04-03T02:38:35;19.40;47.50
21214;DHT22;10764;50.850;2.904;2023-04-03T02:41:07;19.60;47.70
21214;DHT22;10764;50.850;2.904;2023-04-03T02:43:35;19.40;47.50
21214;DHT22;10764;50.850;2.904;2023-04-03T02:46:04;21.70;48.60
21214;DHT22;10764;50.850;2.904;2023-04-03T02:48:32;19.70;47.60
21214;DHT22;10764;50.850;2.904;2023-04-03T02:50:59;19.60;47.50
21214;DHT22;10764;50.850;2.904;2023-04-03T02:53:25;19.40;47.40
21214;DHT22;10764;50.850;2.904;2023-04-03T02:55:52;19.40;47.50
21214;DHT22;10764;50.850;2.904;2023-04-03T02:58:19;19.90;47.70
21214;DHT22;10764;50.850;2.904;2023-04-03T03:00:46;20.50;48.10
21214;DHT22;10764;50.850;2.904;2023-04-03T03:03:13;19.80;47.70
21214;DHT22;10764;50.850;2.904;2023-04-03T03:05:41;19.90;47.80
21214;DHT22;10764;50.850;2.904;2023-04-03T03:08:08;19.70;47.70
21214;DHT22;10764;50.850;2.904;2023-04-03T03:10:35;19.50;47.50
21214;DHT22;10764;50.850;2.904;2023-04-03T03:13:02;20.30;48.00
21214;DHT22;10764;50.850;2.904;2023-04-03T03:15:29;19.40;47.40
21214;DHT22;10764;50.850;2.904;2023-04-03T03:17:56;20.10;48.50
21214;DHT22;10764;50.850;2.904;2023-04-03T03:20:23;20.30;47.90
21214;DHT22;10764;50.850;2.904;2023-04-03T03:22:50;19.90;47.70
21214;DHT22;10764;50.850;2.904;2023-04-03T03:25:17;20.40;47.80
21214;DHT22;10764;50.850;2.904;2023-04-03T03:27:44;19.80;47.60
21214;DHT22;10764;50.850;2.904;2023-04-03T03:30:12;20.40;48.50
21214;DHT22;10764;50.850;2.904;2023-04-03T03:32:39;19.40;47.30
21214;DHT22;10764;50.850;2.904;2023-04-03T03:35:06;19.70;47.50
21214;DHT22;10764;50.850;2.904;2023-04-03T03:37:33;19.40;47.30
21214;DHT22;10764;50.850;2.904;2023-04-03T03:39:59;20.30;47.80
21214;DHT22;10764;50.850;2.904;2023-04-03T03:42:26;20.90;48.10
21214;DHT22;10764;50.850;2.904;2023-04-03T03:44:54;20.30;47.80
21214;DHT22;10764;50.850;2.904;2023-04-03T03:47:21;19.60;47.40
21214;DHT22;10764;50.850;2.904;2023-04-03T03:49:48;19.50;47.40
21214;DHT22;10764;50.850;2.904;2023-04-03T03:52:15;20.00;47.60
21214;DHT22;10764;50.850;2.904;2023-04-03T03:54:42;21.70;48.40
21214;DHT22;10764;50.850;2.904;2023-04-03T03:57:09;19.70;47.50
21214;DHT22;10764;50.850;2.904;2023-04-03T03:59:37;20.90;48.10
21214;DHT22;10764;50.850;2.904;2023-04-03T04:02:04;20.40;47.90
21214;DHT22;10764;50.850;2.904;2023-04-03T04:04:31;20.60;47.90
21214;DHT22;10764;50.850;2.904;2023-04-03T04:06:59;19.30;47.20
21214;DHT22;10764;50.850;2.904;2023-04-03T04:09:27;19.40;47.30
21214;DHT22;10764;50.850;2.904;2023-04-03T04:11:54;20.30;47.80
21214;DHT22;10764;50.850;2.904;2023-04-03T04:14:21;19.40;47.40
21214;DHT22;10764;50.850;2.904;2023-04-03T04:16:49;20.00;47.70
21214;DHT22;10764;50.850;2.904;2023-04-03T04:19:23;21.70;48.50
21214;DHT22;10764;50.850;2.904;2023-04-03T04:21:49;19.70;47.50
21214;DHT22;10764;50.850;2.904;2023-04-03T04:24:17;19.40;47.40
21214;DHT22;10764;50.850;2.904;2023-04-03T04:26:44;19.80;47.60
21214;DHT22;10764;50.850;2.904;2023-04-03T04:29:13;20.00;47.70
21214;DHT22;10764;50.850;2.904;2023-04-03T04:31:39;19.50;47.40
21214;DHT22;10764;50.850;2.904;2023-04-03T04:34:06;19.30;47.30
21214;DHT22;10764;50.850;2.904;2023-04-03T04:36:35;19.30;47.40
21214;DHT22;10764;50.850;2.904;2023-04-03T04:39:02;21.80;48.60
21214;DHT22;10764;50.850;2.904;2023-04-03T04:41:29;19.30;47.40
21214;DHT22;10764;50.850;2.904;2023-04-03T04:43:56;19.70;47.60
21214;DHT22;10764;50.850;2.904;2023-04-03T04:46:23;22.10;48.80
21214;DHT22;10764;50.850;2.904;2023-04-03T04:48:55;20.30;47.90
21214;DHT22;10764;50.850;2.904;2023-04-03T04:51:24;20.50;48.00
21214;DHT22;10764;50.850;2.904;2023-04-03T04:53:52;19.30;47.40
21214;DHT22;10764;50.850;2.904;2023-04-03T04:56:21;19.70;47.50
21214;DHT22;10764;50.850;2.904;2023-04-03T04:58:48;20.30;47.90
21214;DHT22;10764;50.850;2.904;2023-04-03T05:01:17;19.80;47.60
21214;DHT22;10764;50.850;2.904;2023-04-03T05:03:57;20.20;47.90
21214;DHT22;10764;50.850;2.904;2023-04-03T05:06:24;20.30;47.80
21214;DHT22;10764;50.850;2.904;2023-04-03T05:08:53;21.10;48.30
21214;DHT22;10764;50.850;2.904;2023-04-03T05:11:20;19.30;47.30
21214;DHT22;10764;50.850;2.904;2023-04-03T05:13:51;19.30;47.40
21214;DHT22;10764;50.850;2.904;2023-04-03T05:16:18;19.50;47.40
21214;DHT22;10764;50.850;2.904;2023-04-03T05:18:47;20.40;47.80
21214;DHT22;10764;50.850;2.904;2023-04-03T05:21:19;19.50;47.40
21214;DHT22;10764;50.850;2.904;2023-04-03T05:23:47;20.50;47.80
21214;DHT22;10764;50.850;2.904;2023-04-03T05:26:14;19.30;47.10
21214;DHT22;10764;50.850;2.904;2023-04-03T05:28:42;19.70;47.30
21214;DHT22;10764;50.850;2.904;2023-04-03T05:31:10;21.80;48.20
21214;DHT22;10764;50.850;2.904;2023-04-03T05:33:37;20.30;47.50
21214;DHT22;10764;50.850;2.904;2023-04-03T05:36:07;20.00;47.20
21214;DHT22;10764;50.850;2.904;2023-04-03T05:38:40;19.30;46.80
21214;DHT22;10764;50.850;2.904;2023-04-03T05:41:08;20.30;47.30
21214;DHT22;10764;50.850;2.904;2023-04-03T05:43:36;20.40;47.30
21214;DHT22;10764;50.850;2.904;2023-04-03T05:46:10;20.30;47.20
21214;DHT22;10764;50.850;2.904;2023-04-03T05:48:38;20.40;47.20
21214;DHT22;10764;50.850;2.904;2023-04-03T05:51:07;19.30;46.60
21214;DHT22;10764;50.850;2.904;2023-04-03T05:53:36;19.30;46.60
21214;DHT22;10764;50.850;2.904;2023-04-03T05:56:06;19.90;47.00
21214;DHT22;10764;50.850;2.904;2023-04-03T05:58:37;19.90;47.00
21214;DHT22;10764;50.850;2.904;2023-04-03T06:01:04;21.20;47.50
21214;DHT22;10764;50.850;2.904;2023-04-03T06:03:32;21.70;47.80
21214;DHT22;10764;50.850;2.904;2023-04-03T06:06:00;19.60;46.60
21214;DHT22;10764;50.850;2.904;2023-04-03T06:08:28;20.80;47.20
21214;DHT22;10764;50.850;2.904;2023-04-03T06:10:56;21.20;47.30
21214;DHT22;10764;50.850;2.904;2023-04-03T06:13:23;19.50;46.40
21214;DHT22;10764;50.850;2.904;2023-04-03T06:15:50;20.20;46.70
21214;DHT22;10764;50.850;2.904;2023-04-03T06:18:17;20.00;46.50
21214;DHT22;10764;50.850;2.904;2023-04-03T06:20:45;21.30;47.20
21214;DHT22;10764;50.850;2.904;2023-04-03T06:23:12;22.00;47.50
21214;DHT22;10764;50.850;2.904;2023-04-03T06:25:39;20.30;46.60
21214;DHT22;10764;50.850;2.904;2023-04-03T06:28:07;19.70;46.20
21214;DHT22;10764;50.850;2.904;2023-04-03T06:30:36;19.30;46.00
21214;DHT22;10764;50.850;2.904;2023-04-03T06:33:03;19.40;46.00
21214;DHT22;10764;50.850;2.904;2023-04-03T06:35:30;20.40;46.50
21214;DHT22;10764;50.850;2.904;2023-04-03T06:37:57;21.50;47.00
21214;DHT22;10764;50.850;2.904;2023-04-03T06:40:25;19.40;46.00
21214;DHT22;10764;50.850;2.904;2023-04-03T06:42:53;20.70;46.60
21214;DHT22;10764;50.850;2.904;2023-04-03T06:45:20;21.30;47.00
21214;DHT22;10764;50.850;2.904;2023-04-03T06:47:47;22.10;47.60
21214;DHT22;10764;50.850;2.904;2023-04-03T06:50:13;19.40;46.30
21214;DHT22;10764;50.850;2.904;2023-04-03T06:52:41;19.80;46.80
21214;DHT22;10764;50.850;2.904;2023-04-03T06:55:09;20.50;47.60
21214;DHT22;10764;50.850;2.904;2023-04-03T06:57:36;20.30;47.90
21214;DHT22;10764;50.850;2.904;2023-04-03T07:00:05;20.30;48.10
21214;DHT22;10764;50.850;2.904;2023-04-03T07:02:32;19.50;47.80
21214;DHT22;10764;50.850;2.904;2023-04-03T07:04:59;20.40;48.40
21214;DHT22;10764;50.850;2.904;2023-04-03T07:07:26;20.20;48.40
21214;DHT22;10764;50.850;2.904;2023-04-03T07:09:53;20.50;48.50
21214;DHT22;10764;50.850;2.904;2023-04-03T07:12:20;20.70;48.70
21214;DHT22;10764;50.850;2.904;2023-04-03T07:14:47;20.70;48.80
21214;DHT22;10764;50.850;2.904;2023-04-03T07:17:14;20.50;48.80
21214;DHT22;10764;50.850;2.904;2023-04-03T07:19:41;19.50;49.20
21214;DHT22;10764;50.850;2.904;2023-04-03T07:22:08;20.40;49.10
21214;DHT22;10764;50.850;2.904;2023-04-03T07:24:35;19.50;49.00
21214;DHT22;10764;50.850;2.904;2023-04-03T07:27:02;19.50;49.10
21214;DHT22;10764;50.850;2.904;2023-04-03T07:29:29;19.50;49.30
21214;DHT22;10764;50.850;2.904;2023-04-03T07:31:59;20.60;50.10
21214;DHT22;10764;50.850;2.904;2023-04-03T07:34:26;20.60;50.30
21214;DHT22;10764;50.850;2.904;2023-04-03T07:36:53;20.30;50.20
21214;DHT22;10764;50.850;2.904;2023-04-03T07:39:20;19.60;50.00
21214;DHT22;10764;50.850;2.904;2023-04-03T07:41:47;19.90;50.10
21214;DHT22;10764;50.850;2.904;2023-04-03T07:44:13;21.50;51.60
21214;DHT22;10764;50.850;2.904;2023-04-03T07:46:41;21.50;50.70
21214;DHT22;10764;50.850;2.904;2023-04-03T07:49:08;21.70;50.80
21214;DHT22;10764;50.850;2.904;2023-04-03T07:51:36;21.30;50.40
21214;DHT22;10764;50.850;2.904;2023-04-03T07:54:03;20.60;50.00
21214;DHT22;10764;50.850;2.904;2023-04-03T07:56:31;20.00;49.60
21214;DHT22;10764;50.850;2.904;2023-04-03T07:58:58;19.60;49.40
21214;DHT22;10764;50.850;2.904;2023-04-03T08:01:25;19.90;49.60
21214;DHT22;10764;50.850;2.904;2023-04-03T08:03:52;22.30;50.80
21214;DHT22;10764;50.850;2.904;2023-04-03T08:06:19;19.60;49.70
21214;DHT22;10764;50.850;2.904;2023-04-03T08:08:58;21.20;50.60
21214;DHT22;10764;50.850;2.904;2023-04-03T08:11:25;21.00;50.80
21214;DHT22;10764;50.850;2.904;2023-04-03T08:13:53;20.60;50.60
21214;DHT22;10764;50.850;2.904;2023-04-03T08:16:22;20.80;50.60
21214;DHT22;10764;50.850;2.904;2023-04-03T08:18:50;21.00;50.50
21214;DHT22;10764;50.850;2.904;2023-04-03T08:21:17;20.40;50.10
21214;DHT22;10764;50.850;2.904;2023-04-03T08:23:44;19.60;49.60
21214;DHT22;10764;50.850;2.904;2023-04-03T08:26:17;21.10;50.30
21214;DHT22;10764;50.850;2.904;2023-04-03T08:28:44;19.70;49.60
21214;DHT22;10764;50.850;2.904;2023-04-03T08:31:16;19.70;49.70
21214;DHT22;10764;50.850;2.904;2023-04-03T08:33:44;19.70;49.60
21214;DHT22;10764;50.850;2.904;2023-04-03T08:36:23;21.00;50.10
21214;DHT22;10764;50.850;2.904;2023-04-03T08:38:51;20.90;50.00
21214;DHT22;10764;50.850;2.904;2023-04-03T08:41:37;20.50;49.60
21214;DHT22;10764;50.850;2.904;2023-04-03T08:47:01;19.70;48.90
21214;DHT22;10764;50.850;2.904;2023-04-03T08:50:12;19.70;48.80
21214;DHT22;10764;50.850;2.904;2023-04-03T08:52:35;19.70;48.60
21214;DHT22;10764;50.850;2.904;2023-04-03T08:55:14;20.50;48.90
21214;DHT22;10764;50.850;2.904;2023-04-03T08:57:45;19.70;48.60
21214;DHT22;10764;50.850;2.904;2023-04-03T09:00:22;19.60;48.50
21214;DHT22;10764;50.850;2.904;2023-04-03T09:02:54;19.60;48.50
21214;DHT22;10764;50.850;2.904;2023-04-03T09:05:52;19.60;48.40
21214;DHT22;10764;50.850;2.904;2023-04-03T09:10:54;19.60;48.30
21214;DHT22;10764;50.850;2.904;2023-04-03T09:13:33;20.30;48.80
21214;DHT22;10764;50.850;2.904;2023-04-03T09:16:49;19.80;48.20
21214;DHT22;10764;50.850;2.904;2023-04-03T09:19:20;19.60;48.10
21214;DHT22;10764;50.850;2.904;2023-04-03T09:21:48;19.80;48.20
21214;DHT22;10764;50.850;2.904;2023-04-03T09:24:16;19.60;48.00
21214;DHT22;10764;50.850;2.904;2023-04-03T09:27:04;20.60;48.40
21214;DHT22;10764;50.850;2.904;2023-04-03T09:29:37;19.60;47.80
21214;DHT22;10764;50.850;2.904;2023-04-03T09:32:26;20.10;48.10
21214;DHT22;10764;50.850;2.904;2023-04-03T09:34:55;19.60;47.70
21214;DHT22;10764;50.850;2.904;2023-04-03T09:37:42;19.60;47.70
21214;DHT22;10764;50.850;2.904;2023-04-03T09:40:29;19.60;47.60
21214;DHT22;10764;50.850;2.904;2023-04-03T09:42:59;19.60;47.70
21214;DHT22;10764;50.850;2.904;2023-04-03T09:45:33;20.80;48.10
21214;DHT22;10764;50.850;2.904;2023-04-03T09:53:42;20.20;47.80
21214;DHT22;10764;50.850;2.904;2023-04-03T10:04:14;19.60;47.20
21214;DHT22;10764;50.850;2.904;2023-04-03T10:09:33;19.90;47.40
21214;DHT22;10764;50.850;2.904;2023-04-03T10:12:08;19.90;47.40
21214;DHT22;10764;50.850;2.904;2023-04-03T10:14:39;20.00;47.30
21214;DHT22;10764;50.850;2.904;2023-04-03T10:17:35;20.50;47.60
21214;DHT22;10764;50.850;2.904;2023-04-03T10:31:46;19.50;46.90
21214;DHT22;10764;50.850;2.904;2023-04-03T10:34:27;19.50;46.90
21214;DHT22;10764;50.850;2.904;2023-04-03T10:40:21;19.60;46.90
21214;DHT22;10764;50.850;2.904;2023-04-03T10:42:50;19.60;46.80
21214;DHT22;10764;50.850;2.904;2023-04-03T10:45:26;19.70;46.90
21214;DHT22;10764;50.850;2.904;2023-04-03T10:48:00;19.50;47.40
21214;DHT22;10764;50.850;2.904;2023-04-03T10:50:39;19.60;46.70
21214;DHT22;10764;50.850;2.904;2023-04-03T10:53:31;19.50;46.60
21214;DHT22;10764;50.850;2.904;2023-04-03T11:01:31;20.30;47.00
21214;DHT22;10764;50.850;2.904;2023-04-03T11:04:00;20.10;46.80
21214;DHT22;10764;50.850;2.904;2023-04-03T11:06:50;19.60;46.60
21214;DHT22;10764;50.850;2.904;2023-04-03T11:09:23;21.20;47.30
21214;DHT22;10764;50.850;2.904;2023-04-03T11:14:39;19.70;46.70
21214;DHT22;10764;50.850;2.904;2023-04-03T11:22:28;19.60;46.60
21214;DHT22;10764;50.850;2.904;2023-04-03T11:27:47;19.60;46.50
21214;DHT22;10764;50.850;2.904;2023-04-03T11:30:20;19.50;46.40
21214;DHT22;10764;50.850;2.904;2023-04-03T11:33:00;19.60;46.40
21214;DHT22;10764;50.850;2.904;2023-04-03T11:35:30;19.60;46.30
21214;DHT22;10764;50.850;2.904;2023-04-03T11:38:00;19.60;46.30
21214;DHT22;10764;50.850;2.904;2023-04-03T11:40:31;20.80;46.80
21214;DHT22;10764;50.850;2.904;2023-04-03T11:45:29;21.90;47.40
21214;DHT22;10764;50.850;2.904;2023-04-03T11:48:04;20.50;46.70
21214;DHT22;10764;50.850;2.904;2023-04-03T11:50:50;20.50;46.50
21214;DHT22;10764;50.850;2.904;2023-04-03T11:58:20;20.40;46.30
21214;DHT22;10764;50.850;2.904;2023-04-03T12:01:07;19.60;45.90
21214;DHT22;10764;50.850;2.904;2023-04-03T12:16:21;19.60;45.90
21214;DHT22;10764;50.850;2.904;2023-04-03T12:26:44;19.60;45.90
21214;DHT22;10764;50.850;2.904;2023-04-03T12:29:20;21.30;46.10
21214;DHT22;10764;50.850;2.904;2023-04-03T12:31:58;19.60;45.20
21214;DHT22;10764;50.850;2.904;2023-04-03T12:34:55;20.40;45.60
21214;DHT22;10764;50.850;2.904;2023-04-03T12:46:18;19.60;45.10
21214;DHT22;10764;50.850;2.904;2023-04-03T12:48:58;19.60;45.80
21214;DHT22;10764;50.850;2.904;2023-04-03T12:51:39;19.60;45.10
21214;DHT22;10764;50.850;2.904;2023-04-03T12:54:20;19.40;44.90
21214;DHT22;10764;50.850;2.904;2023-04-03T12:56:48;20.40;45.40
21214;DHT22;10764;50.850;2.904;2023-04-03T12:59:24;20.50;45.40
21214;DHT22;10764;50.850;2.904;2023-04-03T13:02:01;20.10;45.10
21214;DHT22;10764;50.850;2.904;2023-04-03T13:04:29;21.50;45.90
21214;DHT22;10764;50.850;2.904;2023-04-03T13:06:57;20.30;45.20
21214;DHT22;10764;50.850;2.904;2023-04-03T13:09:30;22.20;46.10
21214;DHT22;10764;50.850;2.904;2023-04-03T13:12:00;20.90;45.50
21214;DHT22;10764;50.850;2.904;2023-04-03T13:14:28;20.70;45.20
21214;DHT22;10764;50.850;2.904;2023-04-03T13:17:16;20.30;45.00
21214;DHT22;10764;50.850;2.904;2023-04-03T13:19:44;20.10;44.90
21214;DHT22;10764;50.850;2.904;2023-04-03T13:24:59;19.60;44.40
21214;DHT22;10764;50.850;2.904;2023-04-03T13:27:30;19.50;44.40
21214;DHT22;10764;50.850;2.904;2023-04-03T13:29:59;19.60;44.40
21214;DHT22;10764;50.850;2.904;2023-04-03T13:32:30;19.60;44.50
21214;DHT22;10764;50.850;2.904;2023-04-03T13:34:58;20.20;44.80
21214;DHT22;10764;50.850;2.904;2023-04-03T13:37:54;19.60;44.50
21214;DHT22;10764;50.850;2.904;2023-04-03T13:40:22;19.80;44.50
21214;DHT22;10764;50.850;2.904;2023-04-03T13:43:01;19.90;44.60
21214;DHT22;10764;50.850;2.904;2023-04-03T13:45:33;21.60;45.40
21214;DHT22;10764;50.850;2.904;2023-04-03T13:48:10;19.80;44.40
21214;DHT22;10764;50.850;2.904;2023-04-03T13:51:01;20.00;44.50
21214;DHT22;10764;50.850;2.904;2023-04-03T13:53:30;19.60;44.20
21214;DHT22;10764;50.850;2.904;2023-04-03T13:56:07;19.70;44.30
21214;DHT22;10764;50.850;2.904;2023-04-03T13:58:36;19.60;44.20
21214;DHT22;10764;50.850;2.904;2023-04-03T14:06:15;19.60;44.10
21214;DHT22;10764;50.850;2.904;2023-04-03T14:08:43;19.60;44.10
21214;DHT22;10764;50.850;2.904;2023-04-03T14:11:15;20.20;44.20
21214;DHT22;10764;50.850;2.904;2023-04-03T14:13:43;20.10;44.10
21214;DHT22;10764;50.850;2.904;2023-04-03T14:16:22;20.20;44.10
21214;DHT22;10764;50.850;2.904;2023-04-03T14:18:50;21.50;44.80
21214;DHT22;10764;50.850;2.904;2023-04-03T14:21:19;19.60;43.80
21214;DHT22;10764;50.850;2.904;2023-04-03T14:23:46;20.40;44.10
21214;DHT22;10764;50.850;2.904;2023-04-03T14:26:18;19.80;43.80
21214;DHT22;10764;50.850;2.904;2023-04-03T14:28:49;20.10;43.90
21214;DHT22;10764;50.850;2.904;2023-04-03T14:31:18;19.60;43.80
21214;DHT22;10764;50.850;2.904;2023-04-03T14:33:45;20.30;44.00
21214;DHT22;10764;50.850;2.904;2023-04-03T14:38:39;19.60;43.90
21214;DHT22;10764;50.850;2.904;2023-04-03T14:41:07;19.80;43.70
21214;DHT22;10764;50.850;2.904;2023-04-03T14:43:43;20.60;44.40
21214;DHT22;10764;50.850;2.904;2023-04-03T14:46:31;21.20;44.40
21214;DHT22;10764;50.850;2.904;2023-04-03T14:49:17;19.60;43.50
21214;DHT22;10764;50.850;2.904;2023-04-03T14:51:44;20.30;43.90
21214;DHT22;10764;50.850;2.904;2023-04-03T14:54:17;19.60;43.50
21214;DHT22;10764;50.850;2.904;2023-04-03T14:56:45;20.50;44.00
21214;DHT22;10764;50.850;2.904;2023-04-03T14:59:13;21.20;44.50
21214;DHT22;10764;50.850;2.904;2023-04-03T15:01:41;19.60;43.50
21214;DHT22;10764;50.850;2.904;2023-04-03T15:04:15;21.30;44.30
21214;DHT22;10764;50.850;2.904;2023-04-03T15:06:43;19.80;43.40
21214;DHT22;10764;50.850;2.904;2023-04-03T15:09:29;21.30;44.10
21214;DHT22;10764;50.850;2.904;2023-04-03T15:11:56;20.50;44.00
21214;DHT22;10764;50.850;2.904;2023-04-03T15:14:23;21.40;44.00
21214;DHT22;10764;50.850;2.904;2023-04-03T15:17:08;19.60;43.60
21214;DHT22;10764;50.850;2.904;2023-04-03T15:19:39;20.30;43.40
21214;DHT22;10764;50.850;2.904;2023-04-03T15:22:06;21.50;44.10
21214;DHT22;10764;50.850;2.904;2023-04-03T15:24:33;19.70;43.50
21214;DHT22;10764;50.850;2.904;2023-04-03T15:27:00;20.20;43.70
21214;DHT22;10764;50.850;2.904;2023-04-03T15:29:27;20.70;43.40
21214;DHT22;10764;50.850;2.904;2023-04-03T15:31:54;19.90;43.50
21214;DHT22;10764;50.850;2.904;2023-04-03T15:34:22;19.70;43.00
21214;DHT22;10764;50.850;2.904;2023-04-03T15:36:50;19.70;42.90
21214;DHT22;10764;50.850;2.904;2023-04-03T15:39:19;19.90;43.10
21214;DHT22;10764;50.850;2.904;2023-04-03T15:41:47;19.80;42.80
21214;DHT22;10764;50.850;2.904;2023-04-03T15:44:14;19.70;42.80
21214;DHT22;10764;50.850;2.904;2023-04-03T15:46:45;21.50;43.90
21214;DHT22;10764;50.850;2.904;2023-04-03T15:49:12;20.20;43.10
21214;DHT22;10764;50.850;2.904;2023-04-03T15:51:40;20.50;43.50
21214;DHT22;10764;50.850;2.904;2023-04-03T15:54:07;19.80;42.70
21214;DHT22;10764;50.850;2.904;2023-04-03T15:56:34;20.60;43.40
21214;DHT22;10764;50.850;2.904;2023-04-03T15:59:01;21.20;43.60
21214;DHT22;10764;50.850;2.904;2023-04-03T16:01:27;20.00;42.70
21214;DHT22;10764;50.850;2.904;2023-04-03T16:03:54;20.60;42.90
21214;DHT22;10764;50.850;2.904;2023-04-03T16:06:22;20.80;43.00
21214;DHT22;10764;50.850;2.904;2023-04-03T16:08:51;20.00;42.50
21214;DHT22;10764;50.850;2.904;2023-04-03T16:11:18;20.00;42.40
21214;DHT22;10764;50.850;2.904;2023-04-03T16:13:45;19.70;42.40
21214;DHT22;10764;50.850;2.904;2023-04-03T16:16:11;20.50;42.80
21214;DHT22;10764;50.850;2.904;2023-04-03T16:18:38;20.70;42.70
21214;DHT22;10764;50.850;2.904;2023-04-03T16:21:06;21.60;42.90
21214;DHT22;10764;50.850;2.904;2023-04-03T16:23:34;19.90;41.90
21214;DHT22;10764;50.850;2.904;2023-04-03T16:26:01;19.70;41.80
21214;DHT22;10764;50.850;2.904;2023-04-03T16:28:28;20.60;42.10
21214;DHT22;10764;50.850;2.904;2023-04-03T16:30:55;20.20;41.90
21214;DHT22;10764;50.850;2.904;2023-04-03T16:33:21;21.40;42.50
21214;DHT22;10764;50.850;2.904;2023-04-03T16:35:49;20.80;42.10
21214;DHT22;10764;50.850;2.904;2023-04-03T16:38:17;19.70;41.60
21214;DHT22;10764;50.850;2.904;2023-04-03T16:40:47;21.50;42.40
21214;DHT22;10764;50.850;2.904;2023-04-03T16:43:15;19.80;41.50
21214;DHT22;10764;50.850;2.904;2023-04-03T16:45:42;20.60;41.90
21214;DHT22;10764;50.850;2.904;2023-04-03T16:48:09;21.00;42.10
21214;DHT22;10764;50.850;2.904;2023-04-03T16:50:37;20.40;41.70
21214;DHT22;10764;50.850;2.904;2023-04-03T16:53:03;20.40;41.70
21214;DHT22;10764;50.850;2.904;2023-04-03T16:55:30;19.70;41.30
21214;DHT22;10764;50.850;2.904;2023-04-03T16:57:58;20.60;41.80
21214;DHT22;10764;50.850;2.904;2023-04-03T17:00:24;22.10;42.50
21214;DHT22;10764;50.850;2.904;2023-04-03T17:02:51;21.40;42.10
21214;DHT22;10764;50.850;2.904;2023-04-03T17:05:18;19.80;41.40
21214;DHT22;10764;50.850;2.904;2023-04-03T17:07:45;20.70;41.80
21214;DHT22;10764;50.850;2.904;2023-04-03T17:10:12;19.80;41.40
21214;DHT22;10764;50.850;2.904;2023-04-03T17:12:39;19.80;41.30
21214;DHT22;10764;50.850;2.904;2023-04-03T17:15:06;20.00;41.40
21214;DHT22;10764;50.850;2.904;2023-04-03T17:17:33;19.80;41.30
21214;DHT22;10764;50.850;2.904;2023-04-03T17:20:01;19.90;41.30
21214;DHT22;10764;50.850;2.904;2023-04-03T17:22:28;20.40;41.40
21214;DHT22;10764;50.850;2.904;2023-04-03T17:24:55;21.90;42.10
21214;DHT22;10764;50.850;2.904;2023-04-03T17:27:23;21.20;41.80
21214;DHT22;10764;50.850;2.904;2023-04-03T17:29:50;20.10;41.20